Time;durP1;ratioP1;P1;durP2;ratioP2;P2;SDS_P1;SDS_P2;PMS_P1;PMS_P2;Temp;Humidity;BMP_temperature;BMP_pressure;BME280_temperature;BME280_humidity;BME280_pressure;Samples;Min_cycle;Max_cycle;Signal;HPM_P1;HPM_P2
2022/11/15 00:01:17;;;;;;;22.77;9.00;;;13.20;81.70;;;;;;5065023;28;21627;-79
2022/11/15 00:03:47;;;;;;;23.07;10.53;;;13.20;81.80;;;;;;5066887;28;20619;-80
2022/11/15 00:06:15;;;;;;;20.60;9.10;;;13.20;81.90;;;;;;5067449;28;20199;-79
2022/11/15 00:08:44;;;;;;;20.80;8.70;;;13.20;81.90;;;;;;5068799;28;20297;-80
2022/11/15 00:11:13;;;;;;;18.87;8.70;;;13.20;81.90;;;;;;5063886;28;20249;-80
2022/11/15 00:13:42;;;;;;;25.17;9.10;;;13.20;81.90;;;;;;5063957;28;20232;-79
2022/11/15 00:16:11;;;;;;;20.60;9.40;;;13.20;81.90;;;;;;5066116;28;20614;-80
2022/11/15 00:18:39;;;;;;;20.20;9.30;;;13.20;81.90;;;;;;5069619;28;20267;-79
2022/11/15 00:21:14;;;;;;;20.77;9.10;;;13.20;82.00;;;;;;5067860;28;20194;-79
2022/11/15 00:23:42;;;;;;;23.70;9.27;;;13.20;82.10;;;;;;5068009;28;20236;-80
2022/11/15 00:26:13;;;;;;;19.17;7.93;;;13.20;82.00;;;;;;5069941;28;20194;-80
2022/11/15 00:28:41;;;;;;;23.40;9.67;;;13.20;82.00;;;;;;5065371;28;20235;-79
2022/11/15 00:31:13;;;;;;;20.93;9.93;;;13.20;82.10;;;;;;5065707;28;20202;-80
2022/11/15 00:33:43;;;;;;;22.20;8.60;;;13.20;81.90;;;;;;5067163;28;21487;-78
2022/11/15 00:36:13;;;;;;;20.83;9.17;;;13.30;82.10;;;;;;5069390;28;20194;-80
2022/11/15 00:38:41;;;;;;;17.70;8.40;;;13.20;82.00;;;;;;5067320;28;20198;-79
2022/11/15 00:41:10;;;;;;;21.50;9.00;;;13.20;82.00;;;;;;5065058;28;20190;-80
2022/11/15 00:43:39;;;;;;;21.93;9.27;;;13.20;82.10;;;;;;5064990;28;20221;-79
2022/11/15 00:46:09;;;;;;;19.20;8.40;;;13.20;82.20;;;;;;5065952;28;20198;-77
2022/11/15 00:48:38;;;;;;;22.43;9.73;;;13.20;82.20;;;;;;5070169;28;20240;-79
2022/11/15 00:51:06;;;;;;;18.53;8.50;;;13.20;82.30;;;;;;5065728;28;20230;-79
2022/11/15 00:53:36;;;;;;;19.70;8.97;;;13.20;82.40;;;;;;5066820;28;20248;-79
2022/11/15 00:56:04;;;;;;;20.03;8.60;;;13.20;82.50;;;;;;5066993;28;20223;-80
2022/11/15 00:58:33;;;;;;;19.50;8.60;;;13.20;82.50;;;;;;5069399;28;20946;-80
2022/11/15 01:01:08;;;;;;;21.47;8.90;;;13.20;82.50;;;;;;5068277;28;20253;-80
2022/11/15 01:03:36;;;;;;;23.40;8.30;;;13.20;82.70;;;;;;5070887;28;20226;-80
2022/11/15 01:06:05;;;;;;;19.67;8.67;;;13.20;82.60;;;;;;5074016;28;20229;-80
2022/11/15 01:08:34;;;;;;;21.80;9.70;;;13.20;82.70;;;;;;5078558;28;20256;-80
2022/11/15 01:11:04;;;;;;;22.03;8.90;;;13.10;82.70;;;;;;5069268;28;20667;-80
2022/11/15 01:13:33;;;;;;;20.23;8.57;;;13.20;82.80;;;;;;5071815;28;20289;-80
2022/11/15 01:16:07;;;;;;;25.33;9.90;;;13.10;82.80;;;;;;5069409;28;20301;-80
2022/11/15 01:18:36;;;;;;;22.87;9.07;;;13.20;82.80;;;;;;5071477;28;20218;-79
2022/11/15 01:21:08;;;;;;;17.07;9.03;;;13.10;82.80;;;;;;5069499;28;20191;-79
2022/11/15 01:23:38;;;;;;;23.00;9.60;;;13.20;82.80;;;;;;5072832;28;20549;-80
2022/11/15 01:26:11;;;;;;;22.67;10.77;;;13.20;82.80;;;;;;5071148;28;20226;-80
2022/11/15 01:28:41;;;;;;;19.40;8.27;;;13.20;82.70;;;;;;5065035;28;20202;-79
2022/11/15 01:31:13;;;;;;;22.37;9.40;;;13.20;82.70;;;;;;5069058;28;20226;-80
2022/11/15 01:33:42;;;;;;;22.23;9.80;;;13.20;82.70;;;;;;5069224;28;20631;-78
2022/11/15 01:36:15;;;;;;;20.53;9.23;;;13.20;82.70;;;;;;5070959;28;20226;-80
2022/11/15 01:38:45;;;;;;;21.63;9.10;;;13.20;82.70;;;;;;5069538;28;20603;-80
2022/11/15 01:41:19;;;;;;;21.83;9.80;;;13.10;83.50;;;;;;5070621;28;20244;-78
2022/11/15 01:43:49;;;;;;;25.50;9.67;;;13.20;82.80;;;;;;5070961;28;20226;-77
2022/11/15 01:46:28;;;;;;;22.83;9.83;;;13.20;82.80;;;;;;5069013;28;20281;-81
2022/11/15 01:49:00;;;;;;;24.03;10.00;;;13.20;82.70;;;;;;5073514;28;20254;-80
2022/11/15 01:51:31;;;;;;;19.60;10.33;;;13.20;82.70;;;;;;5071097;28;20638;-79
2022/11/15 01:54:05;;;;;;;24.13;9.80;;;13.20;82.70;;;;;;5069533;28;20194;-78
2022/11/15 01:56:38;;;;;;;25.13;10.67;;;13.20;82.70;;;;;;5069999;28;20720;-80
2022/11/15 01:59:09;;;;;;;31.37;10.60;;;13.20;82.60;;;;;;5069132;28;20233;-78
2022/11/15 02:01:38;;;;;;;20.87;9.70;;;13.20;82.50;;;;;;5074240;28;20234;-76
2022/11/15 02:04:11;;;;;;;20.87;9.80;;;13.20;82.40;;;;;;5067052;28;20234;-79
2022/11/15 02:06:40;;;;;;;23.77;10.73;;;13.20;82.40;;;;;;5068820;28;20218;-79
2022/11/15 02:09:11;;;;;;;25.90;12.60;;;13.20;82.30;;;;;;5072917;28;20497;-80
2022/11/15 02:11:39;;;;;;;21.73;10.07;;;13.20;82.50;;;;;;5071279;28;20191;-80
2022/11/15 02:14:09;;;;;;;20.17;9.60;;;13.20;82.50;;;;;;5068568;28;21902;-79
2022/11/15 02:16:49;;;;;;;24.50;11.32;;;13.20;82.50;;;;;;5067964;28;20489;-78
2022/11/15 02:19:41;;;;;;;20.07;9.90;;;13.20;82.80;;;;;;5071940;28;20279;-79
2022/11/15 02:22:25;;;;;;;20.97;10.00;;;13.20;82.70;;;;;;5070647;28;20691;-80
2022/11/15 02:25:10;;;;;;;23.73;9.90;;;13.20;82.70;;;;;;5070157;28;20603;-80
2022/11/15 02:28:09;;;;;;;25.13;10.30;;;13.20;82.50;;;;;;5067412;28;20230;-80
2022/11/15 02:30:43;;;;;;;20.53;9.07;;;13.20;82.40;;;;;;5064212;28;20254;-79
2022/11/15 02:33:22;;;;;;;20.63;9.87;;;13.20;82.20;;;;;;5067508;28;20610;-78
2022/11/15 02:36:01;;;;;;;22.50;9.97;;;13.20;82.10;;;;;;5069361;28;20655;-79
2022/11/15 02:38:38;;;;;;;25.50;10.73;;;13.30;82.10;;;;;;5072276;28;20721;-80
2022/11/15 02:41:12;;;;;;;28.40;11.27;;;13.30;82.10;;;;;;5067986;28;20291;-79
2022/11/15 02:43:57;;;;;;;25.10;10.27;;;13.20;81.90;;;;;;5067798;28;20264;-80
2022/11/15 02:49:20;;;;;;;30.30;10.37;;;13.30;81.90;;;;;;5070161;28;20710;-79
2022/11/15 02:51:51;;;;;;;21.47;9.60;;;13.30;81.90;;;;;;5077775;28;20243;-78
2022/11/15 02:54:23;;;;;;;24.63;9.50;;;13.30;81.80;;;;;;5067889;28;20281;-78
2022/11/15 02:56:53;;;;;;;25.23;10.20;;;13.20;81.70;;;;;;5065830;28;20615;-80
2022/11/15 02:59:44;;;;;;;24.00;9.90;;;13.30;81.70;;;;;;5061558;28;20241;-79
2022/11/15 03:02:27;;;;;;;22.47;9.57;;;13.20;81.60;;;;;;5050661;28;21010;-80
2022/11/15 03:04:59;;;;;;;24.25;10.63;;;13.30;81.50;;;;;;5068770;28;20436;-80
2022/11/15 03:07:33;;;;;;;22.60;10.13;;;13.30;81.50;;;;;;5068364;28;20744;-79
2022/11/15 03:10:10;;;;;;;24.93;9.93;;;13.30;81.40;;;;;;5072086;28;20198;-80
2022/11/15 03:12:47;;;;;;;24.63;10.73;;;13.20;81.40;;;;;;5070767;28;20198;-79
2022/11/15 03:15:21;;;;;;;22.10;9.93;;;13.20;81.30;;;;;;5070292;28;20233;-80
2022/11/15 03:17:56;;;;;;;23.47;9.73;;;13.20;81.40;;;;;;5066133;28;20607;-79
2022/11/15 03:20:27;;;;;;;23.57;9.77;;;13.20;81.40;;;;;;5064876;28;20601;-78
2022/11/15 03:23:00;;;;;;;24.07;10.10;;;13.20;81.50;;;;;;5063541;28;20198;-79
2022/11/15 03:25:30;;;;;;;23.03;9.87;;;13.10;81.50;;;;;;5071768;28;20194;-80
2022/11/15 03:28:02;;;;;;;19.50;9.63;;;13.20;81.60;;;;;;5067091;28;20286;-80
2022/11/15 03:30:33;;;;;;;28.67;10.27;;;13.20;81.50;;;;;;5066936;28;20608;-78
2022/11/15 03:33:05;;;;;;;24.03;11.17;;;13.20;81.50;;;;;;5068369;28;20194;-78
2022/11/15 03:35:38;;;;;;;21.13;10.03;;;13.20;81.50;;;;;;5067465;28;20240;-80
2022/11/15 03:38:12;;;;;;;23.53;10.90;;;13.20;81.40;;;;;;5072808;28;20883;-80
2022/11/15 03:40:42;;;;;;;24.53;11.00;;;13.20;81.50;;;;;;5079000;28;20733;-80
2022/11/15 03:43:19;;;;;;;27.53;10.53;;;13.20;81.50;;;;;;5066384;28;20198;-80
2022/11/15 03:45:53;;;;;;;24.37;10.03;;;13.20;81.50;;;;;;5068530;28;20572;-79
2022/11/15 03:48:25;;;;;;;31.63;11.27;;;13.20;81.50;;;;;;5061283;28;20316;-80
2022/11/15 03:50:54;;;;;;;25.03;10.40;;;13.10;81.30;;;;;;5068217;28;20238;-80
2022/11/15 03:53:22;;;;;;;23.83;10.20;;;13.20;81.40;;;;;;5067136;28;20328;-80
2022/11/15 03:55:50;;;;;;;26.17;10.43;;;13.20;81.30;;;;;;5068067;28;20637;-78
2022/11/15 03:58:19;;;;;;;21.73;9.67;;;13.10;81.30;;;;;;5067516;28;20659;-80
2022/11/15 04:00:47;;;;;;;27.13;10.60;;;13.10;81.40;;;;;;5066516;28;20250;-80
2022/11/15 04:03:15;;;;;;;25.23;9.73;;;13.10;81.30;;;;;;5066333;28;20230;-78
2022/11/15 04:05:45;;;;;;;26.03;10.83;;;13.10;82.20;;;;;;5069077;28;20199;-80
2022/11/15 04:08:13;;;;;;;24.37;9.87;;;13.10;81.30;;;;;;5065007;28;20198;-79
2022/11/15 04:10:41;;;;;;;23.47;9.63;;;13.10;81.50;;;;;;5063653;28;20264;-79
2022/11/15 04:13:10;;;;;;;26.87;10.17;;;13.10;81.40;;;;;;5066847;28;20201;-79
2022/11/15 04:15:38;;;;;;;23.90;10.27;;;13.10;81.40;;;;;;5067652;28;20289;-80
2022/11/15 04:18:06;;;;;;;30.33;10.77;;;13.10;81.50;;;;;;5067678;28;20198;-79
2022/11/15 04:26:12;;;;;;;25.17;10.57;;;13.10;81.40;;;;;;5068876;28;20198;-80
2022/11/15 04:29:34;;;;;;;26.73;11.10;;;13.10;81.30;;;;;;5069836;28;20229;-79
2022/11/15 04:31:29;;;;;;;30.97;12.27;;;13.10;81.40;;;;;;5065941;28;20699;-80
2022/11/15 04:33:57;;;;;;;23.77;10.50;;;13.10;81.40;;;;;;5066312;28;20226;-79
2022/11/15 04:39:13;;;;;;;25.67;11.43;;;13.10;81.50;;;;;;5065820;28;20300;-80
2022/11/15 04:41:41;;;;;;;26.23;11.27;;;13.00;81.30;;;;;;5066324;28;20431;-79
2022/11/15 04:44:09;;;;;;;25.17;11.63;;;13.10;81.40;;;;;;5063068;28;20279;-80
2022/11/15 04:46:37;;;;;;;30.97;11.60;;;13.10;81.50;;;;;;5068675;28;20198;-79
2022/11/15 04:49:06;;;;;;;28.30;11.67;;;13.10;81.50;;;;;;5071677;28;20650;-80
2022/11/15 04:51:34;;;;;;;25.83;10.97;;;13.10;81.50;;;;;;5069341;28;20293;-79
2022/11/15 04:54:02;;;;;;;32.27;11.53;;;13.10;81.60;;;;;;5064609;28;20230;-81
2022/11/15 04:56:32;;;;;;;28.42;12.60;;;13.10;81.50;;;;;;5066391;28;20519;-79
2022/11/15 04:59:00;;;;;;;25.30;11.07;;;13.10;81.90;;;;;;5067423;28;20696;-80
2022/11/15 05:01:28;;;;;;;23.60;10.57;;;13.00;81.80;;;;;;5063684;28;20271;-80
2022/11/15 05:06:43;;;;;;;31.13;11.70;;;13.00;81.80;;;;;;5065076;28;20194;-79
2022/11/15 05:09:12;;;;;;;31.08;12.35;;;12.90;81.80;;;;;;5068356;28;20483;-80
2022/11/15 05:11:42;;;;;;;26.13;11.60;;;13.00;81.90;;;;;;5063262;28;20297;-79
2022/11/15 05:14:11;;;;;;;25.00;11.37;;;13.00;82.00;;;;;;5069054;28;20190;-80
2022/11/15 05:16:39;;;;;;;27.50;10.60;;;13.00;81.90;;;;;;5067164;28;20206;-80
2022/11/15 05:19:08;;;;;;;28.90;13.03;;;13.10;81.80;;;;;;5063321;28;21777;-80
2022/11/15 05:21:36;;;;;;;25.30;11.73;;;13.10;81.70;;;;;;5066421;28;20191;-81
2022/11/15 05:24:06;;;;;;;24.33;10.30;;;13.20;81.50;;;;;;5063239;28;20195;-80
2022/11/15 05:26:35;;;;;;;24.77;11.20;;;13.20;81.40;;;;;;5063143;28;20235;-79
2022/11/15 05:29:05;;;;;;;25.93;10.73;;;13.20;81.20;;;;;;5065294;28;20681;-80
2022/11/15 05:31:33;;;;;;;22.67;10.33;;;13.30;81.30;;;;;;5070679;28;20301;-80
2022/11/15 05:34:04;;;;;;;24.13;11.50;;;13.30;81.10;;;;;;5066283;28;20199;-79
2022/11/15 05:36:36;;;;;;;29.65;13.45;;;13.30;80.90;;;;;;5060607;28;20435;-79
2022/11/15 05:39:07;;;;;;;26.77;11.97;;;13.30;81.00;;;;;;5068219;28;20198;-79
2022/11/15 05:41:40;;;;;;;29.93;12.50;;;13.30;80.90;;;;;;5067842;28;20199;-80
2022/11/15 05:44:13;;;;;;;28.40;12.00;;;13.30;80.60;;;;;;5065714;28;20191;-79
2022/11/15 05:46:42;;;;;;;31.60;11.97;;;13.30;80.10;;;;;;5070849;28;20240;-80
2022/11/15 05:49:13;;;;;;;29.83;12.93;;;13.30;80.10;;;;;;5069083;28;20479;-79
2022/11/15 05:51:45;;;;;;;26.40;11.23;;;13.20;80.30;;;;;;5067698;28;20202;-82
2022/11/15 05:54:14;;;;;;;30.83;13.90;;;13.20;80.30;;;;;;5072970;28;20236;-82
2022/11/15 05:56:43;;;;;;;28.07;11.30;;;13.10;80.30;;;;;;5069940;28;20210;-80
2022/11/15 05:59:13;;;;;;;24.77;11.30;;;13.10;80.40;;;;;;5070388;28;20712;-81
2022/11/15 06:01:42;;;;;;;26.70;11.17;;;13.10;80.50;;;;;;5066078;28;20198;-80
2022/11/15 06:04:10;;;;;;;26.63;11.53;;;13.10;80.50;;;;;;5066860;28;20289;-83
2022/11/15 06:06:39;;;;;;;23.67;10.33;;;13.10;80.50;;;;;;5070973;28;20247;-80
2022/11/15 06:09:07;;;;;;;25.57;11.07;;;13.10;80.50;;;;;;5070314;28;20647;-82
2022/11/15 06:11:35;;;;;;;24.23;10.23;;;13.10;80.60;;;;;;5071468;28;20593;-80
2022/11/15 06:14:04;;;;;;;24.50;11.03;;;13.10;80.60;;;;;;5070562;28;20224;-81
2022/11/15 06:16:33;;;;;;;24.37;11.23;;;13.20;80.70;;;;;;5074515;28;20198;-81
2022/11/15 06:19:02;;;;;;;26.10;12.07;;;13.20;80.60;;;;;;5070786;28;20198;-80
2022/11/15 06:21:30;;;;;;;27.53;11.57;;;13.20;80.50;;;;;;5070826;28;20615;-79
2022/11/15 06:23:58;;;;;;;30.47;11.73;;;13.20;80.20;;;;;;5072001;28;20202;-79
2022/11/15 06:26:30;;;;;;;28.03;11.67;;;13.20;80.10;;;;;;5072052;28;20277;-77
2022/11/15 06:28:58;;;;;;;31.20;12.23;;;13.20;80.00;;;;;;5067363;28;20187;-79
2022/11/15 06:31:26;;;;;;;27.57;11.13;;;13.10;79.90;;;;;;5069249;28;20691;-81
2022/11/15 06:33:56;;;;;;;25.83;10.90;;;13.10;80.00;;;;;;5073185;28;20245;-80
2022/11/15 06:36:24;;;;;;;26.10;11.30;;;13.20;80.10;;;;;;5067013;28;21654;-80
2022/11/15 06:38:53;;;;;;;30.90;11.77;;;13.10;80.00;;;;;;5071457;28;20397;-80
2022/11/15 06:41:21;;;;;;;29.30;11.43;;;13.20;80.20;;;;;;5076020;28;20191;-80
2022/11/15 06:43:50;;;;;;;26.23;11.50;;;13.10;80.00;;;;;;5069150;28;20627;-80
2022/11/15 06:46:18;;;;;;;28.83;11.83;;;13.10;80.00;;;;;;5069203;28;20222;-80
2022/11/15 06:48:46;;;;;;;30.60;12.37;;;13.10;80.00;;;;;;5074057;28;20198;-80
2022/11/15 06:51:16;;;;;;;29.23;12.00;;;13.10;80.10;;;;;;5071738;28;20606;-80
2022/11/15 06:53:44;;;;;;;27.73;11.93;;;13.10;80.10;;;;;;5070503;28;20199;-80
2022/11/15 06:56:13;;;;;;;30.77;11.37;;;13.10;80.20;;;;;;5073172;28;20240;-79
2022/11/15 06:58:41;;;;;;;28.73;12.10;;;13.20;80.30;;;;;;5069944;28;20252;-78
2022/11/15 07:01:11;;;;;;;31.17;11.77;;;13.10;80.20;;;;;;5072552;28;20218;-80
2022/11/15 07:03:43;;;;;;;29.97;12.93;;;13.20;80.30;;;;;;5067630;28;20222;-78
2022/11/15 07:06:11;;;;;;;33.80;12.80;;;13.10;80.20;;;;;;5074342;28;20205;-79
2022/11/15 07:08:42;;;;;;;27.67;11.47;;;13.10;80.30;;;;;;5076224;28;20202;-80
2022/11/15 07:11:10;;;;;;;27.27;10.20;;;13.10;80.30;;;;;;5072595;28;20248;-80
2022/11/15 07:13:38;;;;;;;25.80;11.73;;;13.10;80.30;;;;;;5076259;28;20237;-80
2022/11/15 07:16:08;;;;;;;35.43;12.80;;;13.10;80.50;;;;;;5071441;28;20666;-81
2022/11/15 07:18:37;;;;;;;27.93;12.00;;;13.10;80.50;;;;;;5076533;28;20199;-80
2022/11/15 07:21:07;;;;;;;23.33;11.07;;;13.00;80.20;;;;;;5069014;28;20332;-81
2022/11/15 07:23:37;;;;;;;27.33;11.93;;;13.00;80.20;;;;;;5064573;28;20198;-80
2022/11/15 07:26:07;;;;;;;30.93;13.47;;;13.00;80.30;;;;;;5071219;28;20220;-79
2022/11/15 07:28:36;;;;;;;27.90;12.13;;;13.00;80.20;;;;;;5072105;28;20233;-81
2022/11/15 07:31:06;;;;;;;28.63;12.10;;;13.00;80.10;;;;;;5072279;28;20210;-80
2022/11/15 07:33:34;;;;;;;33.40;12.83;;;13.00;80.20;;;;;;5066652;28;20289;-80
2022/11/15 07:36:04;;;;;;;33.80;12.68;;;13.00;80.30;;;;;;5067467;28;20852;-80
2022/11/15 07:38:32;;;;;;;29.73;11.93;;;13.00;80.60;;;;;;5064756;28;20202;-81
2022/11/15 07:41:09;;;;;;;31.27;12.67;;;13.00;80.60;;;;;;5070480;28;20197;-80
2022/11/15 07:43:37;;;;;;;29.30;12.30;;;13.00;80.50;;;;;;5069268;28;20198;-79
2022/11/15 07:46:09;;;;;;;34.57;12.73;;;12.90;80.30;;;;;;5074635;28;20202;-81
2022/11/15 07:48:39;;;;;;;27.83;11.93;;;12.90;80.30;;;;;;5070115;28;20194;-80
2022/11/15 07:51:13;;;;;;;28.43;11.37;;;12.90;80.30;;;;;;5069082;28;20190;-80
2022/11/15 07:53:42;;;;;;;29.07;11.83;;;12.90;80.50;;;;;;5074175;28;20667;-81
2022/11/15 07:56:12;;;;;;;33.03;12.43;;;12.80;80.60;;;;;;5072645;28;20623;-80
2022/11/15 07:58:40;;;;;;;31.87;11.50;;;12.80;80.60;;;;;;5076082;28;20198;-81
2022/11/15 08:01:10;;;;;;;30.53;12.40;;;12.80;80.80;;;;;;5076861;28;20655;-81
2022/11/15 08:03:39;;;;;;;32.00;12.80;;;12.80;80.80;;;;;;5073347;28;20564;-80
2022/11/15 08:06:07;;;;;;;29.03;12.30;;;12.80;80.90;;;;;;5078534;28;20253;-80
2022/11/15 08:08:35;;;;;;;27.27;11.27;;;12.70;80.90;;;;;;5072007;28;20232;-79
2022/11/15 08:11:04;;;;;;;26.70;11.80;;;12.70;81.00;;;;;;5071728;28;20198;-80
2022/11/15 08:13:33;;;;;;;34.87;14.27;;;12.70;81.20;;;;;;5077028;28;20614;-79
2022/11/15 08:16:05;;;;;;;31.30;12.70;;;12.70;81.30;;;;;;5074206;28;20226;-81
2022/11/15 08:18:33;;;;;;;30.20;13.23;;;12.70;81.40;;;;;;5075629;28;20190;-80
2022/11/15 08:21:02;;;;;;;26.93;11.97;;;12.70;81.50;;;;;;5071265;28;20205;-81
2022/11/15 08:23:31;;;;;;;29.93;12.47;;;12.70;81.50;;;;;;5074507;28;20288;-79
2022/11/15 08:26:02;;;;;;;27.17;13.03;;;12.60;81.40;;;;;;5076331;28;20240;-81
2022/11/15 08:28:31;;;;;;;33.47;14.20;;;12.60;81.30;;;;;;5076488;28;20230;-78
2022/11/15 08:31:00;;;;;;;30.27;11.93;;;12.60;81.30;;;;;;5075745;28;20206;-80
2022/11/15 08:33:29;;;;;;;31.20;13.00;;;12.60;81.40;;;;;;5075032;28;20209;-81
2022/11/15 08:35:58;;;;;;;31.60;12.57;;;12.60;81.50;;;;;;5072282;28;20222;-80
2022/11/15 08:38:28;;;;;;;28.10;11.90;;;12.60;81.60;;;;;;5074902;28;20205;-80
2022/11/15 08:41:02;;;;;;;32.57;12.37;;;12.60;81.60;;;;;;5072777;28;20198;-79
2022/11/15 08:43:31;;;;;;;30.33;11.17;;;12.50;81.40;;;;;;5074914;28;20189;-81
2022/11/15 08:46:01;;;;;;;27.93;12.37;;;12.50;81.50;;;;;;5077067;28;20204;-81
2022/11/15 08:48:30;;;;;;;30.17;11.97;;;12.50;81.40;;;;;;5077966;28;20268;-80
2022/11/15 08:51:02;;;;;;;31.23;12.17;;;12.50;81.40;;;;;;5074560;28;20202;-78
2022/11/15 08:53:30;;;;;;;28.27;12.27;;;12.50;81.30;;;;;;5076362;28;20267;-82
2022/11/15 08:55:59;;;;;;;31.03;12.87;;;12.50;81.20;;;;;;5070350;28;20198;-81
2022/11/15 08:58:27;;;;;;;28.13;12.40;;;12.60;81.30;;;;;;5070044;28;20194;-81
2022/11/15 09:00:56;;;;;;;31.10;13.20;;;12.50;81.10;;;;;;5068527;28;20261;-78
2022/11/15 09:03:26;;;;;;;28.47;11.77;;;12.60;81.10;;;;;;5070810;28;20217;-77
2022/11/15 09:05:56;;;;;;;26.93;11.87;;;12.60;81.10;;;;;;5071212;28;20226;-80
2022/11/15 09:08:25;;;;;;;31.43;12.77;;;12.60;81.10;;;;;;5073279;28;20646;-79
2022/11/15 09:11:14;;;;;;;28.53;12.63;;;12.60;81.20;;;;;;5071593;28;20719;-80
2022/11/15 09:13:43;;;;;;;31.73;12.17;;;12.50;81.10;;;;;;5065494;28;20243;-79
2022/11/15 09:16:11;;;;;;;28.67;11.80;;;12.50;81.30;;;;;;5072535;28;20214;-79
2022/11/15 09:18:41;;;;;;;28.13;12.03;;;12.50;81.30;;;;;;5068005;28;20654;-81
2022/11/15 09:21:10;;;;;;;28.37;12.47;;;12.50;81.40;;;;;;5065630;28;20190;-79
2022/11/15 09:23:38;;;;;;;27.13;11.63;;;12.60;81.50;;;;;;5075710;28;20190;-79
2022/11/15 09:26:07;;;;;;;33.47;12.30;;;12.60;81.50;;;;;;5076607;28;20614;-77
2022/11/15 09:28:36;;;;;;;23.50;10.97;;;12.60;81.50;;;;;;5075560;28;20244;-79
2022/11/15 09:31:07;;;;;;;28.20;11.70;;;12.60;81.50;;;;;;5072721;28;20229;-82
2022/11/15 09:33:35;;;;;;;27.80;13.00;;;12.70;81.30;;;;;;5076252;28;20241;-81
2022/11/15 09:36:07;;;;;;;28.50;11.97;;;12.60;80.70;;;;;;5072367;28;20198;-80
2022/11/15 09:38:35;;;;;;;29.60;12.73;;;12.70;81.10;;;;;;5076813;28;20189;-81
2022/11/15 09:41:26;;;;;;;29.97;12.10;;;12.60;80.70;;;;;;5079315;28;20695;-81
2022/11/15 09:44:14;;;;;;;28.23;11.60;;;12.60;80.30;;;;;;5076905;28;20186;-81
2022/11/15 09:46:57;;;;;;;30.17;11.57;;;12.60;80.50;;;;;;5076003;28;20187;-80
2022/11/15 09:49:25;;;;;;;29.47;11.97;;;12.60;80.70;;;;;;5072911;28;20189;-81
2022/11/15 09:51:55;;;;;;;28.67;11.53;;;12.50;80.60;;;;;;5073908;28;20198;-81
2022/11/15 09:54:30;;;;;;;28.53;11.73;;;12.50;80.50;;;;;;5073308;28;20214;-80
2022/11/15 09:57:22;;;;;;;29.03;12.07;;;12.50;80.40;;;;;;5072512;28;20651;-82
2022/11/15 09:59:59;;;;;;;30.47;10.47;;;12.50;80.50;;;;;;5074856;28;20218;-80
2022/11/15 10:03:01;;;;;;;25.30;11.30;;;12.60;80.60;;;;;;5076264;28;20285;-81
2022/11/15 10:05:30;;;;;;;28.97;11.33;;;12.60;80.80;;;;;;5071565;28;20236;-79
2022/11/15 10:08:07;;;;;;;24.63;10.80;;;12.60;80.70;;;;;;5075276;28;20222;-81
2022/11/15 10:10:41;;;;;;;27.50;11.00;;;12.60;80.80;;;;;;5073394;28;20267;-81
2022/11/15 10:13:23;;;;;;;26.33;12.03;;;12.70;80.60;;;;;;5073338;28;20291;-82
2022/11/15 10:15:54;;;;;;;29.97;11.90;;;12.70;80.50;;;;;;5069411;28;20234;-80
2022/11/15 10:18:30;;;;;;;35.10;12.93;;;12.70;80.50;;;;;;5072031;28;20645;-81
2022/11/15 10:21:03;;;;;;;32.03;12.93;;;12.70;80.60;;;;;;5074751;28;20198;-80
2022/11/15 10:23:34;;;;;;;29.17;11.83;;;12.70;80.80;;;;;;5073665;28;20278;-81
2022/11/15 10:26:02;;;;;;;30.87;12.00;;;12.80;80.70;;;;;;5076314;28;20446;-79
2022/11/15 10:28:34;;;;;;;27.20;11.20;;;12.80;80.40;;;;;;5074966;28;20191;-80
2022/11/15 10:31:04;;;;;;;28.23;11.37;;;12.80;80.30;;;;;;5075950;28;20293;-82
2022/11/15 10:33:34;;;;;;;30.40;12.63;;;12.80;80.20;;;;;;5075834;28;20495;-81
2022/11/15 10:36:24;;;;;;;30.97;11.77;;;12.70;80.00;;;;;;5074627;28;20667;-79
2022/11/15 10:38:58;;;;;;;34.17;13.40;;;12.70;80.00;;;;;;5072314;28;20194;-81
2022/11/15 10:41:38;;;;;;;31.47;12.50;;;12.70;80.00;;;;;;5077075;28;20311;-80
2022/11/15 10:44:22;;;;;;;27.77;12.47;;;12.60;79.70;;;;;;5076337;28;20186;-79
2022/11/15 10:47:07;;;;;;;26.93;12.27;;;12.60;79.90;;;;;;5070082;28;20256;-78
2022/11/15 10:49:36;;;;;;;27.97;11.03;;;12.60;80.20;;;;;;5076376;28;20202;-80
2022/11/15 10:52:16;;;;;;;27.13;11.73;;;12.60;80.30;;;;;;5075927;28;20221;-80
2022/11/15 10:54:49;;;;;;;34.03;13.50;;;12.60;80.30;;;;;;5073990;28;20278;-80
2022/11/15 10:57:20;;;;;;;25.93;10.80;;;12.60;80.20;;;;;;5078754;28;20442;-79
2022/11/15 10:59:50;;;;;;;28.90;11.60;;;12.60;80.30;;;;;;5079550;28;20974;-79
2022/11/15 11:02:42;;;;;;;26.70;10.43;;;12.60;80.40;;;;;;5068450;28;20195;-79
2022/11/15 11:05:28;;;;;;;28.37;11.60;;;12.60;80.50;;;;;;5073944;28;20183;-78
2022/11/15 11:07:59;;;;;;;34.40;12.10;;;12.60;80.60;;;;;;5072608;28;20194;-79
2022/11/15 11:10:29;;;;;;;24.37;11.20;;;12.60;80.30;;;;;;5069600;28;20202;-77
2022/11/15 11:13:25;;;;;;;24.07;11.27;;;12.70;80.60;;;;;;5071108;28;20240;-77
2022/11/15 11:16:00;;;;;;;27.13;10.53;;;12.70;80.60;;;;;;5070881;28;20194;-79
2022/11/15 11:18:38;;;;;;;28.00;10.37;;;12.70;80.20;;;;;;5073845;28;20190;-79
2022/11/15 11:21:12;;;;;;;25.97;11.43;;;12.70;80.20;;;;;;5073502;28;20658;-77
2022/11/15 11:23:51;;;;;;;25.63;10.13;;;12.80;81.10;;;;;;5066774;28;20251;-80
2022/11/15 11:26:41;;;;;;;26.17;10.73;;;12.80;81.30;;;;;;5068195;28;20535;-77
2022/11/15 11:29:25;;;;;;;23.13;10.63;;;12.80;80.50;;;;;;5076986;28;20194;-81
2022/11/15 11:32:04;;;;;;;31.13;12.80;;;12.80;80.30;;;;;;5074006;28;20836;-81
2022/11/15 11:34:45;;;;;;;29.60;13.40;;;12.80;80.20;;;;;;5069279;28;20214;-78
2022/11/15 11:37:21;;;;;;;38.80;11.80;;;12.80;80.00;;;;;;5076543;28;20244;-79
2022/11/15 11:40:04;;;;;;;29.23;11.00;;;12.80;80.00;;;;;;5072120;28;20223;-77
2022/11/15 11:42:53;;;;;;;25.47;11.27;;;12.80;80.00;;;;;;5067010;28;20216;-78
2022/11/15 11:45:50;;;;;;;30.98;11.32;;;12.80;79.90;;;;;;5070634;28;20442;-75
2022/11/15 11:48:30;;;;;;;26.17;11.37;;;12.70;80.20;;;;;;5077115;28;20319;-79
2022/11/15 11:51:06;;;;;;;25.83;10.97;;;12.70;80.20;;;;;;5073321;28;20202;-79
2022/11/15 11:53:41;;;;;;;26.80;11.33;;;12.70;80.10;;;;;;5073453;28;20299;-78
2022/11/15 11:56:18;;;;;;;29.57;11.17;;;12.70;80.40;;;;;;5069286;28;20663;-79
2022/11/15 11:58:49;;;;;;;30.97;12.30;;;12.70;80.30;;;;;;5073420;28;20260;-78
2022/11/15 12:01:24;;;;;;;25.10;10.70;;;12.70;80.30;;;;;;5071768;28;20256;-79
2022/11/15 12:04:05;;;;;;;28.67;11.07;;;12.70;80.40;;;;;;5071096;28;20229;-79
2022/11/15 12:06:40;;;;;;;28.30;9.77;;;12.80;80.60;;;;;;5070545;28;20524;-79
2022/11/15 12:09:16;;;;;;;24.53;10.10;;;12.80;80.50;;;;;;5071167;28;20687;-79
2022/11/15 12:11:53;;;;;;;27.90;11.07;;;12.80;80.50;;;;;;5069641;28;20197;-79
2022/11/15 12:14:30;;;;;;;25.17;9.97;;;12.90;80.40;;;;;;5070350;28;20259;-80
2022/11/15 12:17:00;;;;;;;25.77;9.80;;;12.80;80.20;;;;;;5074154;28;20191;-79
2022/11/15 12:19:30;;;;;;;29.07;10.30;;;12.80;80.20;;;;;;5071313;28;20674;-79
2022/11/15 12:22:04;;;;;;;28.17;9.60;;;12.90;80.30;;;;;;5075835;28;20198;-79
2022/11/15 12:24:40;;;;;;;24.87;10.50;;;12.80;80.20;;;;;;5068634;28;20247;-79
2022/11/15 12:27:17;;;;;;;25.47;10.80;;;12.80;80.30;;;;;;5074309;28;20194;-77
2022/11/15 12:29:57;;;;;;;28.27;11.83;;;12.80;80.40;;;;;;5071651;28;20201;-78
2022/11/15 12:32:30;;;;;;;27.80;11.03;;;12.80;80.30;;;;;;5067404;28;20221;-77
2022/11/15 12:34:59;;;;;;;25.43;9.93;;;12.70;80.50;;;;;;5077017;28;20242;-79
2022/11/15 12:37:57;;;;;;;25.70;9.73;;;12.70;80.60;;;;;;5071512;28;20202;-79
2022/11/15 12:40:28;;;;;;;23.20;10.50;;;12.70;80.90;;;;;;5069469;28;20732;-79
2022/11/15 12:43:02;;;;;;;28.77;10.57;;;12.60;80.90;;;;;;5072048;28;20190;-79
2022/11/15 12:45:33;;;;;;;29.27;10.40;;;12.60;80.90;;;;;;5072066;28;20642;-80
2022/11/15 12:48:38;;;;;;;33.67;11.27;;;12.60;80.90;;;;;;5072801;28;20210;-76
2022/11/15 12:51:10;;;;;;;29.97;11.40;;;12.60;81.00;;;;;;5047086;28;20213;-78
2022/11/15 12:53:38;;;;;;;26.93;10.80;;;12.50;81.00;;;;;;5068429;28;20667;-79
2022/11/15 12:56:23;;;;;;;32.00;11.40;;;12.50;81.10;;;;;;5071681;28;20756;-77
2022/11/15 12:58:57;;;;;;;28.70;10.97;;;12.50;81.40;;;;;;5070713;28;20244;-78
2022/11/15 13:02:08;;;;;;;22.87;9.77;;;12.40;81.40;;;;;;5087605;28;20263;-79
2022/11/15 13:04:36;;;;;;;24.50;10.50;;;12.40;81.60;;;;;;5089534;28;20200;-76
2022/11/15 13:07:08;;;;;;;24.97;10.67;;;12.40;81.70;;;;;;5097448;28;20208;-78
2022/11/15 13:09:56;;;;;;;26.17;10.17;;;12.40;81.70;;;;;;5097948;28;20672;-78